Time;durP1;ratioP1;P1;durP2;ratioP2;P2;SDS_P1;SDS_P2;PMS_P1;PMS_P2;Temp;Humidity;BMP_temperature;BMP_pressure;BME280_temperature;BME280_humidity;BME280_pressure;Samples;Min_cycle;Max_cycle;Signal;HPM_P1;HPM_P2
2022/01/09 00:01:02;;;;;;;21.43;20.23;;;5.40;99.90;;;;;;5063823;28;20469;-71
2022/01/09 00:03:29;;;;;;;21.53;20.33;;;5.50;99.90;;;;;;5058352;28;20491;-72
2022/01/09 00:05:56;;;;;;;21.53;20.23;;;5.50;99.90;;;;;;5063943;28;20755;-72
2022/01/09 00:08:23;;;;;;;21.37;20.17;;;5.60;99.90;;;;;;5059364;28;20466;-72
2022/01/09 00:10:51;;;;;;;21.53;20.00;;;5.70;99.90;;;;;;5066834;28;20976;-72
2022/01/09 00:13:18;;;;;;;19.97;18.77;;;5.70;99.90;;;;;;5057016;28;20465;-73
2022/01/09 00:15:47;;;;;;;20.03;19.03;;;5.60;99.90;;;;;;5061242;28;20470;-72
2022/01/09 00:18:14;;;;;;;19.80;18.80;;;5.60;99.90;;;;;;5065206;28;20981;-73
2022/01/09 00:20:41;;;;;;;20.90;19.70;;;5.60;99.90;;;;;;5055389;28;20482;-73
2022/01/09 00:23:08;;;;;;;20.13;19.13;;;5.60;99.90;;;;;;5061346;28;21063;-74
2022/01/09 00:25:34;;;;;;;20.07;19.07;;;5.60;99.90;;;;;;5066572;28;20814;-73
2022/01/09 00:28:01;;;;;;;19.60;18.70;;;5.70;99.90;;;;;;5063034;28;20470;-73
2022/01/09 00:30:28;;;;;;;19.20;18.20;;;5.60;99.90;;;;;;5060055;28;20465;-73
2022/01/09 00:32:56;;;;;;;19.40;18.50;;;5.60;99.90;;;;;;5064713;28;20850;-73
2022/01/09 00:35:23;;;;;;;19.50;18.60;;;5.70;99.90;;;;;;5056209;28;20460;-73
2022/01/09 00:37:50;;;;;;;20.10;19.00;;;5.60;99.90;;;;;;5065881;28;20466;-73
2022/01/09 00:40:18;;;;;;;19.63;18.63;;;5.70;99.90;;;;;;5066344;28;20458;-73
2022/01/09 00:42:45;;;;;;;19.60;18.70;;;5.70;99.90;;;;;;5061397;28;20467;-72
2022/01/09 00:45:13;;;;;;;19.40;18.37;;;5.80;99.90;;;;;;5057210;28;20500;-72
2022/01/09 00:47:40;;;;;;;20.90;19.90;;;5.80;99.90;;;;;;5062546;28;20997;-72
2022/01/09 00:50:11;;;;;;;20.97;19.97;;;5.80;99.90;;;;;;5059542;28;20516;-73
2022/01/09 00:52:39;;;;;;;19.50;18.60;;;5.90;99.90;;;;;;5062056;28;20880;-73
2022/01/09 00:55:07;;;;;;;18.87;17.90;;;5.90;99.90;;;;;;5066446;28;20468;-72
2022/01/09 00:57:35;;;;;;;20.70;19.50;;;5.90;99.90;;;;;;5063494;28;20482;-72
2022/01/09 01:00:03;;;;;;;20.00;19.00;;;5.90;99.90;;;;;;5061508;28;20481;-71
2022/01/09 01:02:30;;;;;;;20.83;19.20;;;5.90;99.90;;;;;;5053293;28;20459;-71
2022/01/09 01:04:57;;;;;;;20.17;19.10;;;5.90;99.90;;;;;;5055197;28;20499;-72
2022/01/09 01:07:28;;;;;;;21.50;20.20;;;6.00;99.90;;;;;;5064563;28;20457;-73
2022/01/09 01:09:57;;;;;;;22.10;20.80;;;6.10;99.90;;;;;;5060683;28;20494;-72
2022/01/09 01:12:24;;;;;;;21.90;20.80;;;6.10;99.90;;;;;;5056119;28;20461;-72
2022/01/09 01:14:51;;;;;;;21.30;20.10;;;6.10;99.90;;;;;;5065113;28;20462;-72
2022/01/09 01:17:18;;;;;;;20.90;19.87;;;6.10;99.90;;;;;;5063882;28;20459;-73
2022/01/09 01:19:46;;;;;;;23.90;22.07;;;6.10;99.90;;;;;;5065630;28;20953;-72
2022/01/09 01:22:12;;;;;;;23.90;22.40;;;6.20;99.90;;;;;;5056224;28;20555;-73
2022/01/09 01:24:41;;;;;;;23.57;22.27;;;6.20;99.90;;;;;;5056910;28;21104;-72
2022/01/09 01:27:08;;;;;;;24.37;22.97;;;6.20;99.90;;;;;;5063271;28;20470;-73
2022/01/09 01:29:36;;;;;;;23.27;21.87;;;6.10;99.90;;;;;;5061157;28;20451;-72
2022/01/09 01:32:03;;;;;;;25.17;23.77;;;6.10;99.90;;;;;;5059168;28;20992;-72
2022/01/09 01:34:30;;;;;;;22.53;21.27;;;6.10;99.90;;;;;;5061026;28;20469;-73
2022/01/09 01:36:57;;;;;;;21.90;20.37;;;6.10;99.90;;;;;;5058159;28;20464;-74
2022/01/09 01:39:24;;;;;;;20.40;19.40;;;5.90;99.90;;;;;;5063781;28;20470;-72
2022/01/09 01:41:53;;;;;;;20.80;19.80;;;5.70;99.90;;;;;;5060766;28;20467;-75
2022/01/09 01:44:20;;;;;;;18.57;17.67;;;5.50;99.90;;;;;;5061165;28;20491;-73
2022/01/09 01:46:47;;;;;;;18.77;17.87;;;5.30;99.90;;;;;;5064487;28;20571;-73
2022/01/09 01:49:14;;;;;;;16.10;15.10;;;5.10;99.90;;;;;;5061796;28;20466;-73
2022/01/09 01:51:43;;;;;;;14.53;13.70;;;5.00;99.90;;;;;;5061685;28;20467;-75
2022/01/09 01:54:10;;;;;;;14.47;13.60;;;4.90;99.90;;;;;;5054474;28;20934;-74
2022/01/09 01:56:37;;;;;;;13.13;12.43;;;4.90;99.90;;;;;;5059562;28;21005;-74
2022/01/09 01:59:07;;;;;;;11.43;10.13;;;4.80;99.90;;;;;;5064238;28;20456;-73
2022/01/09 02:01:36;;;;;;;11.30;10.60;;;4.70;99.90;;;;;;5064700;28;20509;-76
2022/01/09 02:04:03;;;;;;;8.97;8.47;;;4.60;99.90;;;;;;5056329;28;20556;-77
2022/01/09 02:06:30;;;;;;;7.90;7.17;;;4.50;99.90;;;;;;5059238;28;20475;-74
2022/01/09 02:08:57;;;;;;;17.10;6.30;;;4.40;99.90;;;;;;5062038;28;20475;-76
2022/01/09 02:11:25;;;;;;;10.43;5.57;;;4.50;99.90;;;;;;5059442;28;20464;-75
2022/01/09 02:13:51;;;;;;;11.60;7.27;;;4.50;99.90;;;;;;5057700;28;20466;-75
2022/01/09 02:16:20;;;;;;;7.97;7.23;;;4.50;99.90;;;;;;5062669;28;20554;-76
2022/01/09 02:18:47;;;;;;;7.87;6.70;;;4.50;99.90;;;;;;5056659;28;20543;-74
2022/01/09 02:21:16;;;;;;;21.63;7.83;;;4.40;99.90;;;;;;5059464;28;20470;-75
2022/01/09 02:23:45;;;;;;;8.17;7.47;;;4.40;99.90;;;;;;5062152;28;20811;-75
2022/01/09 02:26:12;;;;;;;8.03;7.33;;;4.50;99.90;;;;;;5062263;28;20459;-74
2022/01/09 02:28:39;;;;;;;8.20;7.60;;;4.50;99.90;;;;;;5058909;28;20953;-74
2022/01/09 02:31:07;;;;;;;9.10;6.80;;;4.50;99.90;;;;;;5058363;28;20529;-76
2022/01/09 02:33:34;;;;;;;9.83;7.97;;;4.60;99.90;;;;;;5057575;28;20475;-73
2022/01/09 02:36:01;;;;;;;11.33;9.07;;;4.60;99.90;;;;;;5062781;28;20471;-75
2022/01/09 02:38:30;;;;;;;16.07;9.80;;;4.60;99.90;;;;;;5061056;28;20452;-73
2022/01/09 02:40:57;;;;;;;22.77;10.23;;;4.60;99.90;;;;;;5061963;28;20969;-73
2022/01/09 02:43:25;;;;;;;14.57;8.87;;;4.70;99.90;;;;;;5056061;28;20458;-73
2022/01/09 02:45:59;;;;;;;13.73;9.57;;;4.70;99.90;;;;;;5058771;28;20498;-71
2022/01/09 02:48:27;;;;;;;9.90;9.00;;;4.60;99.90;;;;;;5063091;28;20463;-74
2022/01/09 02:51:02;;;;;;;12.77;10.93;;;4.70;99.90;;;;;;5061195;28;20470;-72
2022/01/09 02:53:34;;;;;;;12.27;11.07;;;4.70;99.90;;;;;;5061575;28;20469;-73
2022/01/09 02:56:01;;;;;;;20.60;10.43;;;4.70;99.90;;;;;;5056747;28;20471;-73
2022/01/09 02:58:28;;;;;;;24.53;11.07;;;4.70;99.90;;;;;;5057509;28;20460;-74
2022/01/09 03:00:55;;;;;;;23.90;11.20;;;4.70;99.90;;;;;;5060278;28;20462;-71
2022/01/09 03:03:22;;;;;;;17.90;10.43;;;4.70;99.90;;;;;;5054913;28;20455;-73
2022/01/09 03:05:49;;;;;;;10.83;9.73;;;4.70;99.90;;;;;;5061752;28;20523;-74
2022/01/09 03:08:15;;;;;;;15.03;10.60;;;4.70;99.90;;;;;;5059867;28;20454;-73
2022/01/09 03:10:44;;;;;;;9.90;8.90;;;4.70;99.90;;;;;;5057938;28;20473;-76
2022/01/09 03:13:11;;;;;;;14.97;10.70;;;4.70;99.90;;;;;;5057059;28;20460;-74
2022/01/09 03:15:37;;;;;;;14.93;12.53;;;4.70;99.90;;;;;;5058103;28;20472;-74
2022/01/09 03:18:04;;;;;;;14.03;12.90;;;4.70;99.90;;;;;;5059813;28;20463;-75
2022/01/09 03:20:31;;;;;;;15.83;13.50;;;4.70;99.90;;;;;;5059250;28;20459;-75
2022/01/09 03:22:59;;;;;;;14.10;12.80;;;4.70;99.90;;;;;;5059863;28;20464;-74
2022/01/09 03:25:27;;;;;;;19.90;14.40;;;4.80;99.90;;;;;;5058817;28;20501;-72
2022/01/09 03:27:57;;;;;;;31.10;16.43;;;4.80;99.90;;;;;;5061889;28;21027;-74
2022/01/09 03:30:26;;;;;;;35.73;18.43;;;4.90;99.90;;;;;;5055555;28;20471;-72
2022/01/09 03:32:55;;;;;;;33.23;21.30;;;4.90;99.90;;;;;;5063905;28;20819;-73
2022/01/09 03:35:23;;;;;;;24.80;22.10;;;5.10;99.90;;;;;;5065090;28;20485;-74
2022/01/09 03:37:51;;;;;;;29.83;22.73;;;5.10;99.90;;;;;;5057950;28;20451;-72
2022/01/09 03:40:21;;;;;;;29.43;24.93;;;5.10;99.90;;;;;;5054450;28;20558;-71
2022/01/09 03:42:48;;;;;;;30.27;26.57;;;5.10;99.90;;;;;;5060820;28;20467;-73
2022/01/09 03:45:16;;;;;;;31.90;28.77;;;5.20;99.90;;;;;;5060309;28;20494;-72
2022/01/09 03:47:43;;;;;;;39.47;28.70;;;5.20;99.90;;;;;;5059374;28;20460;-73
2022/01/09 03:50:12;;;;;;;56.70;28.23;;;5.20;99.90;;;;;;5066794;28;20540;-73
2022/01/09 03:52:40;;;;;;;32.17;28.83;;;5.30;99.90;;;;;;5058048;28;21115;-73
2022/01/09 03:55:09;;;;;;;50.50;28.97;;;5.30;99.90;;;;;;5057394;28;20513;-72
2022/01/09 03:57:36;;;;;;;40.97;28.03;;;5.40;99.90;;;;;;5057775;28;20888;-72
2022/01/09 04:00:05;;;;;;;34.07;28.30;;;5.30;99.90;;;;;;5058814;28;20486;-72
2022/01/09 04:02:34;;;;;;;26.93;24.27;;;5.30;99.90;;;;;;5061663;28;20460;-73
2022/01/09 04:05:01;;;;;;;38.60;27.53;;;5.30;99.90;;;;;;5068990;28;20856;-74
2022/01/09 04:07:28;;;;;;;55.33;26.60;;;5.30;99.90;;;;;;5059118;28;20463;-72
2022/01/09 04:09:55;;;;;;;41.40;26.07;;;5.30;99.90;;;;;;5062261;28;20458;-71
2022/01/09 04:12:32;;;;;;;35.27;26.00;;;5.30;99.90;;;;;;5058943;28;20456;-73
2022/01/09 04:15:04;;;;;;;50.27;25.47;;;5.30;99.90;;;;;;5055633;28;20455;-72
2022/01/09 04:17:41;;;;;;;41.90;28.00;;;5.30;99.90;;;;;;5054502;28;20988;-71
2022/01/09 04:20:10;;;;;;;31.77;28.07;;;5.30;99.90;;;;;;5063535;28;20494;-71
2022/01/09 04:22:37;;;;;;;35.80;28.47;;;5.30;99.90;;;;;;5063161;28;20463;-73
2022/01/09 04:25:05;;;;;;;37.37;27.60;;;5.20;99.90;;;;;;5060878;28;20496;-73
2022/01/09 04:27:32;;;;;;;28.87;26.13;;;5.30;99.90;;;;;;5064610;28;20456;-71
2022/01/09 04:29:59;;;;;;;43.37;27.60;;;5.30;99.90;;;;;;5064428;28;20487;-73
2022/01/09 04:32:27;;;;;;;39.23;28.07;;;5.20;99.90;;;;;;5062618;28;20464;-71
2022/01/09 04:34:54;;;;;;;42.20;27.07;;;5.30;99.90;;;;;;5064856;28;20557;-72
2022/01/09 04:37:22;;;;;;;41.93;26.73;;;5.30;99.90;;;;;;5061725;28;20462;-73
2022/01/09 04:39:51;;;;;;;36.50;27.67;;;5.30;99.90;;;;;;5058643;28;20463;-71
2022/01/09 04:42:18;;;;;;;37.07;27.90;;;5.30;99.90;;;;;;5065313;28;20459;-73
2022/01/09 04:44:45;;;;;;;36.27;27.00;;;5.20;99.90;;;;;;5065233;28;20557;-71
2022/01/09 04:47:15;;;;;;;29.70;26.80;;;5.20;99.90;;;;;;5038494;28;20468;-73
2022/01/09 04:49:45;;;;;;;28.43;26.13;;;5.20;99.90;;;;;;5042616;28;20505;-72
2022/01/09 04:52:16;;;;;;;34.93;27.03;;;5.30;99.90;;;;;;5042020;28;20510;-73
2022/01/09 04:54:45;;;;;;;39.90;29.07;;;5.30;99.90;;;;;;5044824;28;20469;-72
2022/01/09 04:57:13;;;;;;;30.93;27.93;;;5.30;99.90;;;;;;5038488;28;20545;-72
2022/01/09 04:59:40;;;;;;;31.93;27.33;;;5.30;99.90;;;;;;5038391;28;20951;-71
2022/01/09 05:02:06;;;;;;;47.53;27.90;;;5.30;99.90;;;;;;5012029;28;20460;-71
2022/01/09 05:04:33;;;;;;;30.63;27.73;;;5.30;99.90;;;;;;5029814;28;20461;-71
2022/01/09 05:07:00;;;;;;;29.90;27.10;;;5.30;99.90;;;;;;5038397;28;20533;-71
2022/01/09 05:09:27;;;;;;;36.07;26.40;;;5.30;99.90;;;;;;5036992;28;20457;-73
2022/01/09 05:11:56;;;;;;;28.30;25.60;;;5.20;99.90;;;;;;5021221;28;20896;-73
2022/01/09 05:14:23;;;;;;;29.93;26.40;;;5.30;99.90;;;;;;5012951;28;20492;-72
2022/01/09 05:16:50;;;;;;;26.60;23.97;;;5.20;99.90;;;;;;5010956;28;20467;-71
2022/01/09 05:19:20;;;;;;;32.23;24.00;;;5.20;99.90;;;;;;5012097;28;20545;-72
2022/01/09 05:21:48;;;;;;;26.13;23.93;;;5.20;99.90;;;;;;5012872;28;20487;-71
2022/01/09 05:24:16;;;;;;;27.83;24.47;;;5.20;99.90;;;;;;5012590;28;20465;-72
2022/01/09 05:26:43;;;;;;;30.80;24.90;;;5.20;99.90;;;;;;5012913;28;20500;-70
2022/01/09 05:29:11;;;;;;;25.87;23.43;;;5.30;99.90;;;;;;5010781;28;20461;-71
2022/01/09 05:31:38;;;;;;;31.00;24.40;;;5.30;99.90;;;;;;5012183;28;20465;-70
2022/01/09 05:34:05;;;;;;;26.60;22.90;;;5.30;99.90;;;;;;5012056;28;20910;-71
2022/01/09 05:36:32;;;;;;;36.03;24.97;;;5.30;99.90;;;;;;5012372;28;20467;-72
2022/01/09 05:38:59;;;;;;;38.90;23.77;;;5.20;99.90;;;;;;5011107;28;20469;-73
2022/01/09 05:41:26;;;;;;;38.43;23.00;;;5.30;99.90;;;;;;5012407;28;20472;-72
2022/01/09 05:43:53;;;;;;;24.47;22.20;;;5.30;99.90;;;;;;5012383;28;22239;-71
2022/01/09 05:46:22;;;;;;;24.00;21.37;;;5.30;99.90;;;;;;5025232;28;20501;-71
2022/01/09 05:48:48;;;;;;;32.03;22.60;;;5.30;99.90;;;;;;5030857;28;20916;-71
2022/01/09 05:51:15;;;;;;;33.17;22.50;;;5.30;99.90;;;;;;5032153;28;20473;-72
2022/01/09 05:53:42;;;;;;;23.17;21.00;;;5.30;99.90;;;;;;5031399;28;21180;-71
2022/01/09 05:56:09;;;;;;;23.83;21.33;;;5.20;99.90;;;;;;5029923;28;20496;-72
2022/01/09 05:58:36;;;;;;;24.00;20.17;;;5.20;99.90;;;;;;5030966;28;20614;-71
2022/01/09 06:01:04;;;;;;;21.77;19.67;;;5.10;99.90;;;;;;5030904;28;22388;-71
2022/01/09 06:03:33;;;;;;;22.43;19.90;;;5.10;99.90;;;;;;5028583;28;20456;-71
2022/01/09 06:06:00;;;;;;;24.30;20.30;;;5.10;99.90;;;;;;5029879;28;20495;-71
2022/01/09 06:08:27;;;;;;;26.97;19.20;;;5.10;99.90;;;;;;5031337;28;20471;-71
2022/01/09 06:10:54;;;;;;;24.23;18.80;;;5.20;99.90;;;;;;5028623;28;21219;-72
2022/01/09 06:13:21;;;;;;;25.47;19.00;;;5.20;99.90;;;;;;5030299;28;20472;-71
2022/01/09 06:15:48;;;;;;;23.47;18.40;;;5.20;99.90;;;;;;5029907;28;21886;-71
2022/01/09 06:18:19;;;;;;;19.27;17.20;;;5.20;99.90;;;;;;5031321;28;21000;-71
2022/01/09 06:20:47;;;;;;;19.10;17.40;;;5.20;99.90;;;;;;5031838;28;20460;-71
2022/01/09 06:23:15;;;;;;;19.63;17.67;;;5.30;99.90;;;;;;5031161;28;20465;-71
2022/01/09 06:25:42;;;;;;;24.03;16.37;;;5.20;99.90;;;;;;5030271;28;20574;-71
2022/01/09 06:28:09;;;;;;;24.57;18.47;;;5.30;99.90;;;;;;5031707;28;20472;-70
2022/01/09 06:30:35;;;;;;;20.47;16.90;;;5.30;99.90;;;;;;5030145;28;20456;-71
2022/01/09 06:33:02;;;;;;;36.60;17.17;;;5.30;99.90;;;;;;5030181;28;20483;-70
2022/01/09 06:35:29;;;;;;;23.37;16.23;;;5.30;99.90;;;;;;5031513;28;20566;-71
2022/01/09 06:37:57;;;;;;;19.17;16.47;;;5.30;99.90;;;;;;5031103;28;21041;-72
2022/01/09 06:40:25;;;;;;;18.90;16.30;;;5.30;99.90;;;;;;5030984;28;20473;-71
2022/01/09 06:42:51;;;;;;;18.83;16.00;;;5.30;99.90;;;;;;5030757;28;20462;-71
2022/01/09 06:45:18;;;;;;;20.47;18.07;;;5.30;99.90;;;;;;5031176;28;20494;-72
2022/01/09 06:47:45;;;;;;;17.77;15.23;;;5.30;99.90;;;;;;5029628;28;21344;-71
2022/01/09 06:50:14;;;;;;;19.50;15.63;;;5.20;99.90;;;;;;5030415;28;20469;-71
2022/01/09 06:52:41;;;;;;;33.33;16.47;;;5.20;99.90;;;;;;5029965;28;20488;-71
2022/01/09 06:55:11;;;;;;;18.47;15.63;;;5.20;99.90;;;;;;5027371;28;20463;-71
2022/01/09 06:57:39;;;;;;;23.90;17.93;;;5.20;99.90;;;;;;5028542;28;20499;-71
2022/01/09 07:00:07;;;;;;;19.70;15.67;;;5.20;99.90;;;;;;5028983;28;20568;-71
2022/01/09 07:02:34;;;;;;;29.93;17.10;;;5.20;99.90;;;;;;5027661;28;20464;-71
2022/01/09 07:05:00;;;;;;;21.93;16.20;;;5.20;99.90;;;;;;5026957;28;20478;-72
2022/01/09 07:07:27;;;;;;;21.07;16.40;;;5.30;99.90;;;;;;5027793;28;20448;-71
2022/01/09 07:09:54;;;;;;;16.70;14.93;;;5.30;99.90;;;;;;5028386;28;20475;-71
2022/01/09 07:12:22;;;;;;;16.53;14.77;;;5.30;99.90;;;;;;5027354;28;20461;-71
2022/01/09 07:14:49;;;;;;;21.97;15.50;;;5.30;99.90;;;;;;5027617;28;20467;-71
2022/01/09 07:17:16;;;;;;;17.23;15.43;;;5.20;99.90;;;;;;5027311;28;20460;-72
2022/01/09 07:19:43;;;;;;;20.90;15.27;;;5.20;99.90;;;;;;5025882;28;20478;-70
2022/01/09 07:22:09;;;;;;;18.77;15.77;;;5.20;99.90;;;;;;5027702;28;21431;-71
2022/01/09 07:24:36;;;;;;;22.97;14.30;;;5.20;99.90;;;;;;5026697;28;20478;-71
2022/01/09 07:27:03;;;;;;;20.17;14.30;;;5.20;99.90;;;;;;5029198;28;20569;-70
2022/01/09 07:29:32;;;;;;;21.10;15.57;;;5.10;99.90;;;;;;5029956;28;21195;-71
2022/01/09 07:31:58;;;;;;;16.30;14.63;;;5.10;99.90;;;;;;5028227;28;20464;-71
2022/01/09 07:34:25;;;;;;;19.40;16.67;;;5.10;99.90;;;;;;5028268;28;20840;-71
2022/01/09 07:36:52;;;;;;;15.87;14.20;;;5.10;99.90;;;;;;5027436;28;21250;-71
2022/01/09 07:39:19;;;;;;;18.70;14.70;;;5.10;99.90;;;;;;5026323;28;21154;-71
2022/01/09 07:41:46;;;;;;;15.77;14.67;;;5.20;99.90;;;;;;5028394;28;20498;-70
2022/01/09 07:44:12;;;;;;;18.23;13.80;;;5.10;99.90;;;;;;5031684;28;20572;-70
2022/01/09 07:46:41;;;;;;;17.00;14.43;;;4.90;99.90;;;;;;5031038;28;20487;-71
2022/01/09 07:49:08;;;;;;;16.00;14.60;;;4.80;99.90;;;;;;5030158;28;20467;-71
2022/01/09 07:51:35;;;;;;;15.77;14.13;;;4.80;99.90;;;;;;5032603;28;20771;-71
2022/01/09 07:54:01;;;;;;;15.67;14.37;;;4.80;99.90;;;;;;5030779;28;20467;-70
2022/01/09 07:56:29;;;;;;;15.57;14.27;;;4.80;99.90;;;;;;5031920;28;20483;-71
2022/01/09 07:58:55;;;;;;;15.67;14.40;;;4.80;99.90;;;;;;5031451;28;21158;-71
2022/01/09 08:01:22;;;;;;;22.73;14.63;;;4.80;99.90;;;;;;5032041;28;20463;-71
2022/01/09 08:03:51;;;;;;;15.07;13.83;;;4.90;99.90;;;;;;5027923;28;20459;-70
2022/01/09 08:06:18;;;;;;;16.27;14.40;;;4.90;99.90;;;;;;5032165;28;20503;-72
2022/01/09 08:08:45;;;;;;;13.00;12.30;;;4.90;99.90;;;;;;5032381;28;20455;-71
2022/01/09 08:11:12;;;;;;;21.80;14.27;;;4.90;99.90;;;;;;5030555;28;20463;-70
2022/01/09 08:13:39;;;;;;;20.83;14.53;;;4.90;99.90;;;;;;5030062;28;20472;-71
2022/01/09 08:16:06;;;;;;;16.20;14.53;;;4.90;99.90;;;;;;5031241;28;20494;-71
2022/01/09 08:18:33;;;;;;;16.93;13.80;;;4.90;99.90;;;;;;5030511;28;20464;-71
2022/01/09 08:21:01;;;;;;;14.60;13.30;;;4.90;99.90;;;;;;5030446;28;20467;-71
2022/01/09 08:23:28;;;;;;;17.10;13.90;;;4.90;99.90;;;;;;5031625;28;20940;-70
2022/01/09 08:25:55;;;;;;;15.80;13.43;;;4.90;99.90;;;;;;5031485;28;20817;-70
2022/01/09 08:28:21;;;;;;;15.83;14.40;;;4.90;99.90;;;;;;5030990;28;20966;-70
2022/01/09 08:30:48;;;;;;;16.37;12.53;;;4.80;99.90;;;;;;5029388;28;21048;-72
2022/01/09 08:33:15;;;;;;;22.80;14.47;;;4.70;99.90;;;;;;5039133;28;20482;-71
2022/01/09 08:35:42;;;;;;;15.30;13.90;;;4.70;99.90;;;;;;5052524;28;20480;-71
2022/01/09 08:38:10;;;;;;;16.03;14.20;;;4.70;99.90;;;;;;5057982;28;20468;-71
2022/01/09 08:40:37;;;;;;;23.93;15.37;;;4.70;99.90;;;;;;5030421;28;20460;-71
2022/01/09 08:43:04;;;;;;;15.63;14.13;;;4.70;99.90;;;;;;5030555;28;21097;-71
2022/01/09 08:45:31;;;;;;;18.80;15.00;;;4.80;99.90;;;;;;5029624;28;20774;-71
2022/01/09 08:47:58;;;;;;;16.47;15.07;;;4.90;99.90;;;;;;5029844;28;20727;-71
2022/01/09 08:50:24;;;;;;;15.97;14.47;;;5.00;99.90;;;;;;5030442;28;20460;-71
2022/01/09 08:52:52;;;;;;;15.77;14.30;;;5.10;99.90;;;;;;5029914;28;20461;-70
2022/01/09 08:55:20;;;;;;;15.60;14.00;;;5.00;99.90;;;;;;5029971;28;20913;-70
2022/01/09 08:57:47;;;;;;;16.97;15.30;;;5.00;99.90;;;;;;5030399;28;20493;-71
2022/01/09 09:00:15;;;;;;;16.20;13.73;;;5.00;99.90;;;;;;5030479;28;20460;-71
2022/01/09 09:02:42;;;;;;;18.43;15.17;;;5.10;99.90;;;;;;5030042;28;20474;-71
2022/01/09 09:05:09;;;;;;;16.73;15.23;;;5.10;99.90;;;;;;5030498;28;20467;-70
2022/01/09 09:07:36;;;;;;;15.47;13.90;;;5.10;99.90;;;;;;5030619;28;20553;-71
2022/01/09 09:10:04;;;;;;;15.33;14.00;;;5.20;99.90;;;;;;5030443;28;20464;-71
2022/01/09 09:12:33;;;;;;;19.03;15.57;;;5.20;99.90;;;;;;5029715;28;20630;-71
2022/01/09 09:15:01;;;;;;;17.33;15.43;;;5.20;99.90;;;;;;5031125;28;21377;-71
2022/01/09 09:17:28;;;;;;;15.50;14.37;;;5.20;99.90;;;;;;5031502;28;21160;-71
2022/01/09 09:19:55;;;;;;;20.77;16.27;;;5.20;99.90;;;;;;5031034;28;20452;-71
2022/01/09 09:22:22;;;;;;;16.37;15.07;;;5.20;99.90;;;;;;5031826;28;20995;-70
2022/01/09 09:24:49;;;;;;;17.70;16.20;;;5.20;99.90;;;;;;5030665;28;20470;-71
2022/01/09 09:27:16;;;;;;;19.37;16.77;;;5.30;99.90;;;;;;5030096;28;20488;-71
2022/01/09 09:29:45;;;;;;;17.50;15.90;;;5.30;99.90;;;;;;5029324;28;20511;-71
2022/01/09 09:32:13;;;;;;;25.97;16.60;;;5.30;99.90;;;;;;5030621;28;21304;-72
2022/01/09 09:34:41;;;;;;;18.07;16.30;;;5.40;99.90;;;;;;5026922;28;20465;-71
2022/01/09 09:37:08;;;;;;;17.00;15.30;;;5.50;99.90;;;;;;5027088;28;20664;-71
2022/01/09 09:39:35;;;;;;;15.77;14.27;;;5.50;99.90;;;;;;5030542;28;21110;-71
2022/01/09 09:42:02;;;;;;;16.93;15.47;;;5.50;99.90;;;;;;5029907;28;20556;-71
2022/01/09 09:44:29;;;;;;;18.00;14.47;;;5.60;99.90;;;;;;5032091;28;20981;-71
2022/01/09 09:46:59;;;;;;;16.23;15.07;;;5.50;99.90;;;;;;5029164;28;20501;-71
2022/01/09 09:49:26;;;;;;;18.23;15.40;;;5.50;99.90;;;;;;5039328;28;21032;-71
2022/01/09 09:51:53;;;;;;;22.87;15.97;;;5.60;99.90;;;;;;5031683;28;21041;-71
2022/01/09 09:54:19;;;;;;;17.13;15.47;;;5.60;99.90;;;;;;5043659;28;20471;-71
2022/01/09 09:56:47;;;;;;;16.77;14.90;;;5.50;99.90;;;;;;5039719;28;20674;-70
2022/01/09 09:59:14;;;;;;;17.37;15.70;;;5.60;99.90;;;;;;5027571;28;20471;-71
2022/01/09 10:01:41;;;;;;;16.90;15.30;;;5.70;99.90;;;;;;5030096;28;20963;-70
2022/01/09 10:04:10;;;;;;;17.47;15.83;;;5.60;99.90;;;;;;5026964;28;20471;-71
2022/01/09 10:06:39;;;;;;;16.67;15.27;;;5.60;99.90;;;;;;5029079;28;20494;-72
2022/01/09 10:09:08;;;;;;;17.90;16.23;;;5.60;99.90;;;;;;5026387;28;20473;-71
2022/01/09 10:11:50;;;;;;;16.80;15.33;;;5.60;99.90;;;;;;5027601;28;20467;-71
2022/01/09 10:14:20;;;;;;;17.17;15.60;;;5.60;99.90;;;;;;5029008;28;20530;-71
2022/01/09 10:17:06;;;;;;;16.60;15.00;;;5.70;99.90;;;;;;5029818;28;20461;-71
2022/01/09 10:19:47;;;;;;;15.63;14.30;;;5.80;99.90;;;;;;5030429;28;20471;-70
2022/01/09 10:22:33;;;;;;;17.03;15.23;;;5.80;99.90;;;;;;5029343;28;20472;-71
2022/01/09 10:25:24;;;;;;;16.40;15.20;;;5.80;99.90;;;;;;5029808;28;21224;-71
2022/01/09 10:27:55;;;;;;;16.10;14.90;;;5.80;99.90;;;;;;5027559;28;20484;-71
2022/01/09 10:30:24;;;;;;;18.00;15.67;;;5.70;99.90;;;;;;5028758;28;20555;-71
2022/01/09 10:32:56;;;;;;;18.70;15.43;;;5.60;99.90;;;;;;5028077;28;20471;-71
2022/01/09 10:35:26;;;;;;;14.93;13.63;;;5.60;99.90;;;;;;5028480;28;20491;-71
2022/01/09 10:38:11;;;;;;;20.63;14.93;;;5.60;99.90;;;;;;5032035;28;20471;-71
2022/01/09 10:40:38;;;;;;;14.53;13.20;;;5.50;99.90;;;;;;5055076;28;20465;-71
2022/01/09 10:43:07;;;;;;;16.20;14.70;;;5.60;99.90;;;;;;5027643;28;20478;-71
2022/01/09 10:45:37;;;;;;;15.90;14.53;;;5.80;99.90;;;;;;5022307;28;20494;-71
2022/01/09 10:48:06;;;;;;;16.03;14.63;;;6.00;99.90;;;;;;5030876;28;20498;-71
2022/01/09 10:50:37;;;;;;;14.30;13.23;;;6.00;99.90;;;;;;5054830;28;20467;-71
2022/01/09 10:53:25;;;;;;;16.30;15.00;;;6.00;99.90;;;;;;5039710;28;22497;-72
2022/01/09 10:56:08;;;;;;;15.83;14.63;;;5.90;99.90;;;;;;5024777;28;20856;-72
2022/01/09 10:58:36;;;;;;;26.20;15.50;;;5.90;99.90;;;;;;5024697;28;20456;-71
2022/01/09 11:01:20;;;;;;;16.10;14.43;;;5.90;99.90;;;;;;5024837;28;20464;-71
2022/01/09 11:03:49;;;;;;;16.53;14.83;;;5.90;99.90;;;;;;5025489;28;20476;-71
2022/01/09 11:06:18;;;;;;;16.00;14.77;;;6.00;99.90;;;;;;5024381;28;20523;-71
2022/01/09 11:08:45;;;;;;;15.87;14.73;;;6.10;99.90;;;;;;5025103;28;20463;-71
2022/01/09 11:11:21;;;;;;;16.00;14.63;;;6.10;99.90;;;;;;5025911;28;20472;-71
2022/01/09 11:13:51;;;;;;;15.80;14.50;;;6.10;99.90;;;;;;5025569;28;20992;-71
2022/01/09 11:16:34;;;;;;;15.00;13.80;;;6.00;99.90;;;;;;5024950;28;20558;-71
2022/01/09 11:19:03;;;;;;;14.63;13.50;;;5.90;99.90;;;;;;5023741;28;20881;-71
2022/01/09 11:21:31;;;;;;;15.53;14.00;;;6.00;99.90;;;;;;5022722;28;21103;-71
2022/01/09 11:24:41;;;;;;;15.10;14.20;;;6.00;99.90;;;;;;5024422;28;21054;-71
2022/01/09 11:27:18;;;;;;;15.17;13.93;;;5.90;99.90;;;;;;5023471;28;20901;-71
2022/01/09 11:29:53;;;;;;;21.87;16.30;;;5.90;99.90;;;;;;5023363;28;20841;-72
2022/01/09 11:32:28;;;;;;;15.83;14.53;;;6.00;99.90;;;;;;5024172;28;20849;-72
2022/01/09 11:35:03;;;;;;;17.13;15.40;;;6.10;99.90;;;;;;5032693;28;20472;-71
2022/01/09 11:37:50;;;;;;;15.20;14.30;;;6.10;99.90;;;;;;5053087;28;20474;-71
2022/01/09 11:40:25;;;;;;;15.90;14.47;;;6.10;99.90;;;;;;5022774;28;20455;-72
2022/01/09 11:43:04;;;;;;;23.47;14.90;;;6.10;99.90;;;;;;5024671;28;20989;-72
2022/01/09 11:45:46;;;;;;;16.13;14.23;;;6.30;99.90;;;;;;5023762;28;20849;-72
2022/01/09 11:48:15;;;;;;;15.63;14.10;;;6.40;99.90;;;;;;5020755;28;20865;-72
2022/01/09 11:51:10;;;;;;;17.63;15.73;;;6.40;99.90;;;;;;5025051;28;20455;-72
2022/01/09 11:54:06;;;;;;;20.13;15.77;;;6.30;99.90;;;;;;5029571;28;20479;-71
2022/01/09 11:57:06;;;;;;;17.03;15.50;;;6.30;99.90;;;;;;5053187;28;20488;-73
2022/01/09 11:59:35;;;;;;;21.67;14.50;;;6.40;99.90;;;;;;5051063;28;21023;-74
2022/01/09 12:02:04;;;;;;;13.97;13.03;;;6.40;99.90;;;;;;5044185;28;20468;-73
2022/01/09 12:04:54;;;;;;;17.27;15.33;;;6.40;99.90;;;;;;5024846;28;20744;-72
2022/01/09 12:08:05;;;;;;;15.77;14.33;;;6.50;99.90;;;;;;5023558;28;20582;-73
2022/01/09 12:10:51;;;;;;;15.60;14.60;;;6.50;99.90;;;;;;5024503;28;20479;-73
2022/01/09 12:13:48;;;;;;;15.73;14.40;;;6.50;99.90;;;;;;5028138;28;20466;-72
2022/01/09 12:16:47;;;;;;;15.60;14.40;;;6.50;99.90;;;;;;5027382;28;20473;-72
2022/01/09 12:19:48;;;;;;;16.20;15.03;;;6.60;99.90;;;;;;5026243;28;20479;-71
2022/01/09 12:22:15;;;;;;;17.07;15.70;;;6.60;99.90;;;;;;5024929;28;20589;-72
2022/01/09 12:24:43;;;;;;;16.00;14.70;;;6.60;99.90;;;;;;5024134;28;20512;-71
2022/01/09 12:27:46;;;;;;;15.70;14.50;;;6.50;99.90;;;;;;5021881;28;20860;-72
2022/01/09 12:30:44;;;;;;;22.10;15.97;;;6.40;99.90;;;;;;5025088;28;21055;-72
2022/01/09 12:33:12;;;;;;;20.63;18.73;;;6.40;99.90;;;;;;5026258;28;20471;-70
2022/01/09 12:35:42;;;;;;;32.47;29.10;;;6.20;99.90;;;;;;5026232;28;21056;-72
2022/01/09 12:38:14;;;;;;;29.90;27.40;;;6.10;99.90;;;;;;5028045;28;20469;-71
2022/01/09 12:40:44;;;;;;;32.10;28.67;;;6.00;99.90;;;;;;5030012;28;20463;-74
2022/01/09 12:43:14;;;;;;;29.90;27.40;;;5.90;99.90;;;;;;5033953;28;20463;-74
2022/01/09 12:45:44;;;;;;;30.67;27.60;;;5.80;99.90;;;;;;5033361;28;20493;-73
2022/01/09 12:48:19;;;;;;;31.00;28.20;;;5.60;99.90;;;;;;5030693;28;20624;-73
2022/01/09 12:50:48;;;;;;;30.03;27.27;;;5.70;99.90;;;;;;5030193;28;20457;-73